sensor_id;sensor_type;location;lat;lon;timestamp;P1;durP1;ratioP1;P2;durP2;ratioP2
24153;SDS011;12312;53.362;-1.518;2023-04-30T00:00:36;88.20;;;42.05;;
24153;SDS011;12312;53.362;-1.518;2023-04-30T00:03:20;80.13;;;41.38;;
24153;SDS011;12312;53.362;-1.518;2023-04-30T00:06:04;80.07;;;41.33;;
24153;SDS011;12312;53.362;-1.518;2023-04-30T00:08:48;87.72;;;44.72;;
24153;SDS011;12312;53.362;-1.518;2023-04-30T00:11:32;84.68;;;44.63;;
24153;SDS011;12312;53.362;-1.518;2023-04-30T00:14:16;77.25;;;42.10;;
24153;SDS011;12312;53.362;-1.518;2023-04-30T00:17:00;80.95;;;40.60;;
24153;SDS011;12312;53.362;-1.518;2023-04-30T00:19:44;82.57;;;41.67;;
24153;SDS011;12312;53.362;-1.518;2023-04-30T00:22:28;92.43;;;45.47;;
24153;SDS011;12312;53.362;-1.518;2023-04-30T00:25:12;90.07;;;44.20;;
24153;SDS011;12312;53.362;-1.518;2023-04-30T00:27:56;86.78;;;43.65;;
24153;SDS011;12312;53.362;-1.518;2023-04-30T00:30:41;88.45;;;41.75;;
24153;SDS011;12312;53.362;-1.518;2023-04-30T00:33:25;86.47;;;41.75;;
24153;SDS011;12312;53.362;-1.518;2023-04-30T00:36:09;79.32;;;41.03;;
24153;SDS011;12312;53.362;-1.518;2023-04-30T00:38:53;84.38;;;42.53;;
24153;SDS011;12312;53.362;-1.518;2023-04-30T00:41:37;85.38;;;40.72;;
24153;SDS011;12312;53.362;-1.518;2023-04-30T00:44:24;83.82;;;42.88;;
24153;SDS011;12312;53.362;-1.518;2023-04-30T00:47:08;97.82;;;47.97;;
24153;SDS011;12312;53.362;-1.518;2023-04-30T00:49:52;85.03;;;44.28;;
24153;SDS011;12312;53.362;-1.518;2023-04-30T00:52:36;84.57;;;42.13;;
24153;SDS011;12312;53.362;-1.518;2023-04-30T00:55:21;81.18;;;42.55;;
24153;SDS011;12312;53.362;-1.518;2023-04-30T00:58:06;89.72;;;42.65;;
24153;SDS011;12312;53.362;-1.518;2023-04-30T01:00:51;91.90;;;43.75;;
24153;SDS011;12312;53.362;-1.518;2023-04-30T01:03:35;92.30;;;43.00;;
24153;SDS011;12312;53.362;-1.518;2023-04-30T01:06:20;88.22;;;44.13;;
24153;SDS011;12312;53.362;-1.518;2023-04-30T01:09:04;88.68;;;44.92;;
24153;SDS011;12312;53.362;-1.518;2023-04-30T01:11:52;94.88;;;44.83;;
24153;SDS011;12312;53.362;-1.518;2023-04-30T01:14:59;97.38;;;46.40;;
24153;SDS011;12312;53.362;-1.518;2023-04-30T01:17:55;98.20;;;46.92;;
24153;SDS011;12312;53.362;-1.518;2023-04-30T01:20:44;97.10;;;47.83;;
24153;SDS011;12312;53.362;-1.518;2023-04-30T01:29:18;110.70;;;49.85;;
24153;SDS011;12312;53.362;-1.518;2023-04-30T01:32:06;106.82;;;49.28;;
24153;SDS011;12312;53.362;-1.518;2023-04-30T01:34:50;117.60;;;51.80;;
24153;SDS011;12312;53.362;-1.518;2023-04-30T01:37:47;103.38;;;47.58;;
24153;SDS011;12312;53.362;-1.518;2023-04-30T01:55:38;105.35;;;48.58;;
24153;SDS011;12312;53.362;-1.518;2023-04-30T01:58:26;105.63;;;49.67;;
24153;SDS011;12312;53.362;-1.518;2023-04-30T02:01:31;116.30;;;50.95;;
24153;SDS011;12312;53.362;-1.518;2023-04-30T02:04:16;113.20;;;53.42;;
24153;SDS011;12312;53.362;-1.518;2023-04-30T02:07:00;110.20;;;50.67;;
24153;SDS011;12312;53.362;-1.518;2023-04-30T02:09:44;106.70;;;48.40;;
24153;SDS011;12312;53.362;-1.518;2023-04-30T02:12:28;110.97;;;52.15;;
24153;SDS011;12312;53.362;-1.518;2023-04-30T02:15:13;99.38;;;49.05;;
24153;SDS011;12312;53.362;-1.518;2023-04-30T02:17:57;109.93;;;50.50;;
24153;SDS011;12312;53.362;-1.518;2023-04-30T02:20:41;100.90;;;49.20;;
24153;SDS011;12312;53.362;-1.518;2023-04-30T02:23:26;106.68;;;49.70;;
24153;SDS011;12312;53.362;-1.518;2023-04-30T02:26:10;101.60;;;50.13;;
24153;SDS011;12312;53.362;-1.518;2023-04-30T02:28:54;109.25;;;52.03;;
24153;SDS011;12312;53.362;-1.518;2023-04-30T02:31:38;106.43;;;48.80;;
24153;SDS011;12312;53.362;-1.518;2023-04-30T02:34:22;105.28;;;48.20;;
24153;SDS011;12312;53.362;-1.518;2023-04-30T02:37:07;110.60;;;50.28;;
24153;SDS011;12312;53.362;-1.518;2023-04-30T02:39:51;108.53;;;49.30;;
24153;SDS011;12312;53.362;-1.518;2023-04-30T02:42:36;110.57;;;52.50;;
24153;SDS011;12312;53.362;-1.518;2023-04-30T02:45:21;106.50;;;50.38;;
24153;SDS011;12312;53.362;-1.518;2023-04-30T02:48:05;116.18;;;52.17;;
24153;SDS011;12312;53.362;-1.518;2023-04-30T02:50:49;115.05;;;53.05;;
24153;SDS011;12312;53.362;-1.518;2023-04-30T02:53:33;109.68;;;52.53;;
24153;SDS011;12312;53.362;-1.518;2023-04-30T02:56:18;123.30;;;55.25;;
24153;SDS011;12312;53.362;-1.518;2023-04-30T02:59:02;116.57;;;55.00;;
24153;SDS011;12312;53.362;-1.518;2023-04-30T03:01:46;117.85;;;56.38;;
24153;SDS011;12312;53.362;-1.518;2023-04-30T03:04:30;108.70;;;53.65;;
24153;SDS011;12312;53.362;-1.518;2023-04-30T03:07:15;111.47;;;52.50;;
24153;SDS011;12312;53.362;-1.518;2023-04-30T03:10:00;110.72;;;53.63;;
24153;SDS011;12312;53.362;-1.518;2023-04-30T03:12:44;106.63;;;51.80;;
24153;SDS011;12312;53.362;-1.518;2023-04-30T03:15:28;110.53;;;50.90;;
24153;SDS011;12312;53.362;-1.518;2023-04-30T03:18:15;96.70;;;50.03;;
24153;SDS011;12312;53.362;-1.518;2023-04-30T03:20:59;111.57;;;52.55;;
24153;SDS011;12312;53.362;-1.518;2023-04-30T03:23:43;105.25;;;51.78;;
24153;SDS011;12312;53.362;-1.518;2023-04-30T03:26:27;103.90;;;52.45;;
24153;SDS011;12312;53.362;-1.518;2023-04-30T03:29:11;99.32;;;51.30;;
24153;SDS011;12312;53.362;-1.518;2023-04-30T03:31:56;108.32;;;51.80;;
24153;SDS011;12312;53.362;-1.518;2023-04-30T03:34:40;112.32;;;53.97;;
24153;SDS011;12312;53.362;-1.518;2023-04-30T03:37:24;104.15;;;53.60;;
24153;SDS011;12312;53.362;-1.518;2023-04-30T03:40:08;110.18;;;51.80;;
24153;SDS011;12312;53.362;-1.518;2023-04-30T03:42:53;104.70;;;52.08;;
24153;SDS011;12312;53.362;-1.518;2023-04-30T03:45:36;116.43;;;52.17;;
24153;SDS011;12312;53.362;-1.518;2023-04-30T03:48:21;105.80;;;51.47;;
24153;SDS011;12312;53.362;-1.518;2023-04-30T03:51:04;111.45;;;53.63;;
24153;SDS011;12312;53.362;-1.518;2023-04-30T03:53:49;112.18;;;52.05;;
24153;SDS011;12312;53.362;-1.518;2023-04-30T03:56:33;117.38;;;54.35;;
24153;SDS011;12312;53.362;-1.518;2023-04-30T03:59:18;124.95;;;56.45;;
24153;SDS011;12312;53.362;-1.518;2023-04-30T04:02:03;133.43;;;58.20;;
24153;SDS011;12312;53.362;-1.518;2023-04-30T04:04:47;121.72;;;55.25;;
24153;SDS011;12312;53.362;-1.518;2023-04-30T04:07:32;130.10;;;57.00;;
24153;SDS011;12312;53.362;-1.518;2023-04-30T04:10:17;139.70;;;58.45;;
24153;SDS011;12312;53.362;-1.518;2023-04-30T04:13:01;144.02;;;59.78;;
24153;SDS011;12312;53.362;-1.518;2023-04-30T04:15:45;140.75;;;59.65;;
24153;SDS011;12312;53.362;-1.518;2023-04-30T04:18:29;132.88;;;58.08;;
24153;SDS011;12312;53.362;-1.518;2023-04-30T04:21:15;141.07;;;58.95;;
24153;SDS011;12312;53.362;-1.518;2023-04-30T04:23:59;137.30;;;57.45;;
24153;SDS011;12312;53.362;-1.518;2023-04-30T04:26:50;134.48;;;56.65;;
24153;SDS011;12312;53.362;-1.518;2023-04-30T04:29:36;132.95;;;55.60;;
24153;SDS011;12312;53.362;-1.518;2023-04-30T04:32:20;130.32;;;53.25;;
24153;SDS011;12312;53.362;-1.518;2023-04-30T04:35:05;119.32;;;51.33;;
24153;SDS011;12312;53.362;-1.518;2023-04-30T04:37:49;101.88;;;46.67;;
24153;SDS011;12312;53.362;-1.518;2023-04-30T04:40:33;107.80;;;47.85;;
24153;SDS011;12312;53.362;-1.518;2023-04-30T04:43:18;112.47;;;47.25;;
24153;SDS011;12312;53.362;-1.518;2023-04-30T04:46:02;108.40;;;48.17;;
24153;SDS011;12312;53.362;-1.518;2023-04-30T04:48:48;108.18;;;46.83;;
24153;SDS011;12312;53.362;-1.518;2023-04-30T04:51:32;118.70;;;49.20;;
24153;SDS011;12312;53.362;-1.518;2023-04-30T04:54:16;110.50;;;47.97;;
24153;SDS011;12312;53.362;-1.518;2023-04-30T04:57:00;104.05;;;49.25;;
24153;SDS011;12312;53.362;-1.518;2023-04-30T04:59:45;114.85;;;49.00;;
24153;SDS011;12312;53.362;-1.518;2023-04-30T05:02:29;102.18;;;47.35;;
24153;SDS011;12312;53.362;-1.518;2023-04-30T05:05:13;105.00;;;48.40;;
24153;SDS011;12312;53.362;-1.518;2023-04-30T05:07:57;103.53;;;47.85;;
24153;SDS011;12312;53.362;-1.518;2023-04-30T05:10:42;104.38;;;47.60;;
24153;SDS011;12312;53.362;-1.518;2023-04-30T05:13:27;104.70;;;47.03;;
24153;SDS011;12312;53.362;-1.518;2023-04-30T05:16:13;107.50;;;48.20;;
24153;SDS011;12312;53.362;-1.518;2023-04-30T05:18:56;98.13;;;46.22;;
24153;SDS011;12312;53.362;-1.518;2023-04-30T05:21:40;98.32;;;45.10;;
24153;SDS011;12312;53.362;-1.518;2023-04-30T05:24:24;100.32;;;45.75;;
24153;SDS011;12312;53.362;-1.518;2023-04-30T05:27:08;97.47;;;45.65;;
24153;SDS011;12312;53.362;-1.518;2023-04-30T05:29:53;100.07;;;47.05;;
24153;SDS011;12312;53.362;-1.518;2023-04-30T05:32:36;101.80;;;45.42;;
24153;SDS011;12312;53.362;-1.518;2023-04-30T05:35:21;97.82;;;47.80;;
24153;SDS011;12312;53.362;-1.518;2023-04-30T05:38:05;99.00;;;44.50;;
24153;SDS011;12312;53.362;-1.518;2023-04-30T05:40:49;102.72;;;46.80;;
24153;SDS011;12312;53.362;-1.518;2023-04-30T05:43:33;99.03;;;46.38;;
24153;SDS011;12312;53.362;-1.518;2023-04-30T05:46:17;102.32;;;46.45;;
24153;SDS011;12312;53.362;-1.518;2023-04-30T05:49:02;92.82;;;44.67;;
24153;SDS011;12312;53.362;-1.518;2023-04-30T05:51:46;94.45;;;44.65;;
24153;SDS011;12312;53.362;-1.518;2023-04-30T05:54:30;94.15;;;43.38;;
24153;SDS011;12312;53.362;-1.518;2023-04-30T05:57:14;95.43;;;41.85;;
24153;SDS011;12312;53.362;-1.518;2023-04-30T05:59:58;95.78;;;42.83;;
24153;SDS011;12312;53.362;-1.518;2023-04-30T06:02:42;91.90;;;42.53;;
24153;SDS011;12312;53.362;-1.518;2023-04-30T06:05:26;89.05;;;44.70;;
24153;SDS011;12312;53.362;-1.518;2023-04-30T06:08:10;94.03;;;42.33;;
24153;SDS011;12312;53.362;-1.518;2023-04-30T06:10:54;98.32;;;43.63;;
24153;SDS011;12312;53.362;-1.518;2023-04-30T06:13:39;93.65;;;44.28;;
24153;SDS011;12312;53.362;-1.518;2023-04-30T06:16:23;95.20;;;43.00;;
24153;SDS011;12312;53.362;-1.518;2023-04-30T06:19:07;86.82;;;40.88;;
24153;SDS011;12312;53.362;-1.518;2023-04-30T06:21:51;97.13;;;41.92;;
24153;SDS011;12312;53.362;-1.518;2023-04-30T06:24:35;96.47;;;42.75;;
24153;SDS011;12312;53.362;-1.518;2023-04-30T06:27:21;88.38;;;39.08;;
24153;SDS011;12312;53.362;-1.518;2023-04-30T06:30:16;85.22;;;39.42;;
24153;SDS011;12312;53.362;-1.518;2023-04-30T06:33:01;76.88;;;36.55;;
24153;SDS011;12312;53.362;-1.518;2023-04-30T06:35:46;77.30;;;36.05;;
24153;SDS011;12312;53.362;-1.518;2023-04-30T06:38:30;76.72;;;34.42;;
24153;SDS011;12312;53.362;-1.518;2023-04-30T06:41:14;68.90;;;32.33;;
24153;SDS011;12312;53.362;-1.518;2023-04-30T06:43:59;66.57;;;31.20;;
24153;SDS011;12312;53.362;-1.518;2023-04-30T06:46:43;63.45;;;31.02;;
24153;SDS011;12312;53.362;-1.518;2023-04-30T06:49:28;55.53;;;26.67;;
24153;SDS011;12312;53.362;-1.518;2023-04-30T06:52:12;57.97;;;28.20;;
24153;SDS011;12312;53.362;-1.518;2023-04-30T06:54:56;57.53;;;27.10;;
24153;SDS011;12312;53.362;-1.518;2023-04-30T06:57:40;48.08;;;22.30;;
24153;SDS011;12312;53.362;-1.518;2023-04-30T07:00:24;46.05;;;23.05;;
24153;SDS011;12312;53.362;-1.518;2023-04-30T07:03:09;43.80;;;23.05;;
24153;SDS011;12312;53.362;-1.518;2023-04-30T07:05:53;41.83;;;21.25;;
24153;SDS011;12312;53.362;-1.518;2023-04-30T07:08:36;40.88;;;22.05;;
24153;SDS011;12312;53.362;-1.518;2023-04-30T07:11:24;37.70;;;19.45;;
24153;SDS011;12312;53.362;-1.518;2023-04-30T07:14:08;34.00;;;18.92;;
24153;SDS011;12312;53.362;-1.518;2023-04-30T07:16:53;33.15;;;17.95;;
24153;SDS011;12312;53.362;-1.518;2023-04-30T07:19:37;36.08;;;16.70;;
24153;SDS011;12312;53.362;-1.518;2023-04-30T07:22:25;34.85;;;16.90;;
24153;SDS011;12312;53.362;-1.518;2023-04-30T07:25:13;29.15;;;16.02;;
24153;SDS011;12312;53.362;-1.518;2023-04-30T07:27:59;31.27;;;15.82;;
24153;SDS011;12312;53.362;-1.518;2023-04-30T07:30:43;29.30;;;14.88;;
24153;SDS011;12312;53.362;-1.518;2023-04-30T07:33:27;26.83;;;14.85;;
24153;SDS011;12312;53.362;-1.518;2023-04-30T07:36:11;22.58;;;13.55;;
24153;SDS011;12312;53.362;-1.518;2023-04-30T07:38:55;23.48;;;11.65;;
24153;SDS011;12312;53.362;-1.518;2023-04-30T07:41:39;20.38;;;11.90;;
24153;SDS011;12312;53.362;-1.518;2023-04-30T07:44:24;19.63;;;12.00;;
24153;SDS011;12312;53.362;-1.518;2023-04-30T07:47:08;21.55;;;11.60;;
24153;SDS011;12312;53.362;-1.518;2023-04-30T07:49:52;18.05;;;10.77;;
24153;SDS011;12312;53.362;-1.518;2023-04-30T07:52:36;21.85;;;11.93;;
24153;SDS011;12312;53.362;-1.518;2023-04-30T07:55:20;20.02;;;10.85;;
24153;SDS011;12312;53.362;-1.518;2023-04-30T07:58:04;18.85;;;11.65;;
24153;SDS011;12312;53.362;-1.518;2023-04-30T08:00:49;22.35;;;11.70;;
24153;SDS011;12312;53.362;-1.518;2023-04-30T08:03:33;20.50;;;11.65;;
24153;SDS011;12312;53.362;-1.518;2023-04-30T08:06:17;21.70;;;11.27;;
24153;SDS011;12312;53.362;-1.518;2023-04-30T08:09:01;24.77;;;14.10;;
24153;SDS011;12312;53.362;-1.518;2023-04-30T08:11:46;22.70;;;13.02;;
24153;SDS011;12312;53.362;-1.518;2023-04-30T08:14:30;18.67;;;11.93;;
24153;SDS011;12312;53.362;-1.518;2023-04-30T08:17:15;23.17;;;12.13;;
24153;SDS011;12312;53.362;-1.518;2023-04-30T08:20:00;19.52;;;11.27;;
24153;SDS011;12312;53.362;-1.518;2023-04-30T08:22:45;18.40;;;11.32;;
24153;SDS011;12312;53.362;-1.518;2023-04-30T08:25:30;17.92;;;11.30;;
24153;SDS011;12312;53.362;-1.518;2023-04-30T08:28:14;18.83;;;11.25;;
24153;SDS011;12312;53.362;-1.518;2023-04-30T08:30:58;21.55;;;13.07;;
24153;SDS011;12312;53.362;-1.518;2023-04-30T08:33:42;21.50;;;12.23;;
24153;SDS011;12312;53.362;-1.518;2023-04-30T08:36:26;24.38;;;13.68;;
24153;SDS011;12312;53.362;-1.518;2023-04-30T08:39:10;20.70;;;12.25;;
24153;SDS011;12312;53.362;-1.518;2023-04-30T08:41:55;21.23;;;12.30;;
24153;SDS011;12312;53.362;-1.518;2023-04-30T08:44:40;18.52;;;11.18;;
24153;SDS011;12312;53.362;-1.518;2023-04-30T08:47:26;18.27;;;10.45;;
24153;SDS011;12312;53.362;-1.518;2023-04-30T08:50:11;19.40;;;10.45;;
24153;SDS011;12312;53.362;-1.518;2023-04-30T08:52:56;18.67;;;10.27;;
24153;SDS011;12312;53.362;-1.518;2023-04-30T08:55:41;20.83;;;10.25;;
24153;SDS011;12312;53.362;-1.518;2023-04-30T08:58:25;21.85;;;10.65;;
24153;SDS011;12312;53.362;-1.518;2023-04-30T09:01:09;19.52;;;11.38;;
24153;SDS011;12312;53.362;-1.518;2023-04-30T09:03:53;17.17;;;10.60;;
24153;SDS011;12312;53.362;-1.518;2023-04-30T09:06:38;20.25;;;10.75;;
24153;SDS011;12312;53.362;-1.518;2023-04-30T09:09:26;16.95;;;10.55;;
24153;SDS011;12312;53.362;-1.518;2023-04-30T09:12:15;21.13;;;11.98;;
24153;SDS011;12312;53.362;-1.518;2023-04-30T09:15:03;18.65;;;11.95;;
24153;SDS011;12312;53.362;-1.518;2023-04-30T09:17:48;18.67;;;11.70;;
24153;SDS011;12312;53.362;-1.518;2023-04-30T09:20:32;23.23;;;13.40;;
24153;SDS011;12312;53.362;-1.518;2023-04-30T09:23:18;23.92;;;12.95;;
24153;SDS011;12312;53.362;-1.518;2023-04-30T09:26:02;23.00;;;13.63;;
24153;SDS011;12312;53.362;-1.518;2023-04-30T09:28:55;24.38;;;13.50;;
24153;SDS011;12312;53.362;-1.518;2023-04-30T09:31:44;24.10;;;13.52;;
24153;SDS011;12312;53.362;-1.518;2023-04-30T09:34:32;25.55;;;15.85;;
24153;SDS011;12312;53.362;-1.518;2023-04-30T09:37:18;25.30;;;14.98;;
24153;SDS011;12312;53.362;-1.518;2023-04-30T09:40:02;22.65;;;14.63;;
24153;SDS011;12312;53.362;-1.518;2023-04-30T09:42:57;26.75;;;15.65;;
24153;SDS011;12312;53.362;-1.518;2023-04-30T09:45:42;27.00;;;14.48;;
24153;SDS011;12312;53.362;-1.518;2023-04-30T09:48:31;26.75;;;14.95;;
24153;SDS011;12312;53.362;-1.518;2023-04-30T09:51:15;25.95;;;15.50;;
24153;SDS011;12312;53.362;-1.518;2023-04-30T09:53:59;28.50;;;15.35;;
24153;SDS011;12312;53.362;-1.518;2023-04-30T09:56:46;29.67;;;15.80;;
24153;SDS011;12312;53.362;-1.518;2023-04-30T09:59:32;26.70;;;16.08;;
24153;SDS011;12312;53.362;-1.518;2023-04-30T10:02:22;31.65;;;16.02;;
24153;SDS011;12312;53.362;-1.518;2023-04-30T10:07:52;25.85;;;14.98;;
24153;SDS011;12312;53.362;-1.518;2023-04-30T10:10:37;28.63;;;15.57;;
24153;SDS011;12312;53.362;-1.518;2023-04-30T10:13:23;32.40;;;15.95;;
24153;SDS011;12312;53.362;-1.518;2023-04-30T10:16:23;24.35;;;15.43;;
24153;SDS011;12312;53.362;-1.518;2023-04-30T10:19:22;28.65;;;17.02;;
24153;SDS011;12312;53.362;-1.518;2023-04-30T10:22:08;28.23;;;16.98;;
24153;SDS011;12312;53.362;-1.518;2023-04-30T10:24:53;29.15;;;16.27;;
24153;SDS011;12312;53.362;-1.518;2023-04-30T10:27:38;26.92;;;15.60;;
24153;SDS011;12312;53.362;-1.518;2023-04-30T10:30:23;27.50;;;14.43;;
24153;SDS011;12312;53.362;-1.518;2023-04-30T10:36:03;23.25;;;13.68;;
24153;SDS011;12312;53.362;-1.518;2023-04-30T10:38:51;23.52;;;13.75;;
24153;SDS011;12312;53.362;-1.518;2023-04-30T10:41:36;22.42;;;13.80;;
24153;SDS011;12312;53.362;-1.518;2023-04-30T10:44:21;25.67;;;14.25;;
24153;SDS011;12312;53.362;-1.518;2023-04-30T10:47:06;27.05;;;16.00;;
24153;SDS011;12312;53.362;-1.518;2023-04-30T10:49:50;27.98;;;15.80;;
24153;SDS011;12312;53.362;-1.518;2023-04-30T10:52:36;27.88;;;15.60;;
24153;SDS011;12312;53.362;-1.518;2023-04-30T10:55:21;25.52;;;13.52;;
24153;SDS011;12312;53.362;-1.518;2023-04-30T10:58:21;20.17;;;10.95;;
24153;SDS011;12312;53.362;-1.518;2023-04-30T11:01:13;10.85;;;6.80;;
24153;SDS011;12312;53.362;-1.518;2023-04-30T11:04:05;11.50;;;6.97;;
24153;SDS011;12312;53.362;-1.518;2023-04-30T11:07:01;10.90;;;6.88;;
24153;SDS011;12312;53.362;-1.518;2023-04-30T11:09:51;9.95;;;5.47;;
24153;SDS011;12312;53.362;-1.518;2023-04-30T11:12:40;7.68;;;4.80;;
24153;SDS011;12312;53.362;-1.518;2023-04-30T11:15:34;7.32;;;4.85;;
24153;SDS011;12312;53.362;-1.518;2023-04-30T11:18:25;9.73;;;4.88;;
24153;SDS011;12312;53.362;-1.518;2023-04-30T11:21:10;10.57;;;5.93;;
24153;SDS011;12312;53.362;-1.518;2023-04-30T11:24:01;9.93;;;6.20;;
24153;SDS011;12312;53.362;-1.518;2023-04-30T11:27:02;12.50;;;6.68;;
24153;SDS011;12312;53.362;-1.518;2023-04-30T11:29:49;14.20;;;8.00;;
24153;SDS011;12312;53.362;-1.518;2023-04-30T11:32:37;13.48;;;7.63;;
24153;SDS011;12312;53.362;-1.518;2023-04-30T11:35:22;9.40;;;4.65;;
24153;SDS011;12312;53.362;-1.518;2023-04-30T11:38:06;7.57;;;4.85;;
24153;SDS011;12312;53.362;-1.518;2023-04-30T11:43:37;10.05;;;5.50;;
24153;SDS011;12312;53.362;-1.518;2023-04-30T11:46:23;9.40;;;6.38;;
24153;SDS011;12312;53.362;-1.518;2023-04-30T11:49:07;11.57;;;6.68;;
24153;SDS011;12312;53.362;-1.518;2023-04-30T11:51:51;10.15;;;5.97;;
24153;SDS011;12312;53.362;-1.518;2023-04-30T11:54:35;11.70;;;7.25;;
24153;SDS011;12312;53.362;-1.518;2023-04-30T11:57:20;12.00;;;7.20;;
24153;SDS011;12312;53.362;-1.518;2023-04-30T12:00:11;13.35;;;8.63;;
24153;SDS011;12312;53.362;-1.518;2023-04-30T12:02:58;15.60;;;9.43;;
24153;SDS011;12312;53.362;-1.518;2023-04-30T12:05:44;17.10;;;10.23;;
24153;SDS011;12312;53.362;-1.518;2023-04-30T12:08:29;17.48;;;10.50;;
24153;SDS011;12312;53.362;-1.518;2023-04-30T12:11:27;20.17;;;11.23;;
24153;SDS011;12312;53.362;-1.518;2023-04-30T12:14:12;20.25;;;11.10;;
24153;SDS011;12312;53.362;-1.518;2023-04-30T12:16:58;23.02;;;13.00;;
24153;SDS011;12312;53.362;-1.518;2023-04-30T12:19:42;22.38;;;12.98;;
24153;SDS011;12312;53.362;-1.518;2023-04-30T12:22:26;23.85;;;13.57;;
24153;SDS011;12312;53.362;-1.518;2023-04-30T12:25:12;23.60;;;13.63;;
24153;SDS011;12312;53.362;-1.518;2023-04-30T12:27:58;22.25;;;14.05;;
24153;SDS011;12312;53.362;-1.518;2023-04-30T12:30:42;25.63;;;13.63;;
24153;SDS011;12312;53.362;-1.518;2023-04-30T12:33:29;24.42;;;14.15;;
24153;SDS011;12312;53.362;-1.518;2023-04-30T12:36:14;22.35;;;12.75;;
24153;SDS011;12312;53.362;-1.518;2023-04-30T12:39:04;21.15;;;12.25;;
24153;SDS011;12312;53.362;-1.518;2023-04-30T12:41:50;18.75;;;12.13;;
24153;SDS011;12312;53.362;-1.518;2023-04-30T12:44:41;17.40;;;11.73;;
24153;SDS011;12312;53.362;-1.518;2023-04-30T12:47:27;19.70;;;11.60;;
24153;SDS011;12312;53.362;-1.518;2023-04-30T12:50:12;20.83;;;12.63;;
24153;SDS011;12312;53.362;-1.518;2023-04-30T12:53:00;21.20;;;13.02;;
24153;SDS011;12312;53.362;-1.518;2023-04-30T12:58:54;17.98;;;12.05;;
24153;SDS011;12312;53.362;-1.518;2023-04-30T13:01:43;16.10;;;10.23;;
24153;SDS011;12312;53.362;-1.518;2023-04-30T13:04:29;18.13;;;10.35;;
24153;SDS011;12312;53.362;-1.518;2023-04-30T13:07:13;21.65;;;11.85;;
24153;SDS011;12312;53.362;-1.518;2023-04-30T13:09:57;19.20;;;11.73;;
24153;SDS011;12312;53.362;-1.518;2023-04-30T13:12:42;21.67;;;13.35;;
24153;SDS011;12312;53.362;-1.518;2023-04-30T13:15:26;21.17;;;13.75;;
24153;SDS011;12312;53.362;-1.518;2023-04-30T13:18:10;22.83;;;13.52;;
24153;SDS011;12312;53.362;-1.518;2023-04-30T13:20:54;22.45;;;13.30;;
24153;SDS011;12312;53.362;-1.518;2023-04-30T13:23:38;21.40;;;13.38;;
24153;SDS011;12312;53.362;-1.518;2023-04-30T13:26:22;22.52;;;13.13;;
24153;SDS011;12312;53.362;-1.518;2023-04-30T13:29:07;23.45;;;13.18;;
24153;SDS011;12312;53.362;-1.518;2023-04-30T13:31:51;25.23;;;12.93;;
24153;SDS011;12312;53.362;-1.518;2023-04-30T13:34:35;21.20;;;12.50;;
24153;SDS011;12312;53.362;-1.518;2023-04-30T13:37:19;22.05;;;12.35;;
24153;SDS011;12312;53.362;-1.518;2023-04-30T13:40:07;23.20;;;12.93;;
24153;SDS011;12312;53.362;-1.518;2023-04-30T13:42:52;26.77;;;14.38;;
24153;SDS011;12312;53.362;-1.518;2023-04-30T13:45:36;20.50;;;12.93;;
24153;SDS011;12312;53.362;-1.518;2023-04-30T13:48:20;22.88;;;13.90;;
24153;SDS011;12312;53.362;-1.518;2023-04-30T13:51:04;25.38;;;14.02;;
24153;SDS011;12312;53.362;-1.518;2023-04-30T13:53:48;19.40;;;12.40;;
24153;SDS011;12312;53.362;-1.518;2023-04-30T13:56:32;19.20;;;11.13;;
24153;SDS011;12312;53.362;-1.518;2023-04-30T13:59:16;17.70;;;9.70;;
24153;SDS011;12312;53.362;-1.518;2023-04-30T14:02:01;17.60;;;9.80;;
24153;SDS011;12312;53.362;-1.518;2023-04-30T14:04:46;17.25;;;9.77;;
24153;SDS011;12312;53.362;-1.518;2023-04-30T14:07:30;20.80;;;12.25;;
24153;SDS011;12312;53.362;-1.518;2023-04-30T14:10:15;21.20;;;12.98;;
24153;SDS011;12312;53.362;-1.518;2023-04-30T14:12:59;19.70;;;12.30;;
24153;SDS011;12312;53.362;-1.518;2023-04-30T14:15:43;21.38;;;12.85;;
24153;SDS011;12312;53.362;-1.518;2023-04-30T14:18:27;21.90;;;12.05;;
24153;SDS011;12312;53.362;-1.518;2023-04-30T14:21:11;19.48;;;11.77;;
24153;SDS011;12312;53.362;-1.518;2023-04-30T14:23:55;22.40;;;12.05;;
24153;SDS011;12312;53.362;-1.518;2023-04-30T14:26:39;18.75;;;11.90;;
24153;SDS011;12312;53.362;-1.518;2023-04-30T14:29:25;20.13;;;12.40;;
24153;SDS011;12312;53.362;-1.518;2023-04-30T14:32:11;24.52;;;14.07;;
24153;SDS011;12312;53.362;-1.518;2023-04-30T14:34:56;21.00;;;13.02;;
24153;SDS011;12312;53.362;-1.518;2023-04-30T14:37:41;26.15;;;14.50;;
24153;SDS011;12312;53.362;-1.518;2023-04-30T14:40:25;29.23;;;15.45;;
24153;SDS011;12312;53.362;-1.518;2023-04-30T14:43:10;28.77;;;15.07;;
24153;SDS011;12312;53.362;-1.518;2023-04-30T14:45:54;28.10;;;15.60;;
24153;SDS011;12312;53.362;-1.518;2023-04-30T14:48:39;27.70;;;15.32;;
24153;SDS011;12312;53.362;-1.518;2023-04-30T14:51:23;22.60;;;13.98;;
24153;SDS011;12312;53.362;-1.518;2023-04-30T14:54:07;23.42;;;13.68;;
24153;SDS011;12312;53.362;-1.518;2023-04-30T14:56:51;23.20;;;12.13;;
24153;SDS011;12312;53.362;-1.518;2023-04-30T14:59:34;19.92;;;11.90;;
24153;SDS011;12312;53.362;-1.518;2023-04-30T15:02:19;21.33;;;12.80;;
24153;SDS011;12312;53.362;-1.518;2023-04-30T15:05:05;22.55;;;11.85;;
24153;SDS011;12312;53.362;-1.518;2023-04-30T15:07:51;23.45;;;12.85;;
24153;SDS011;12312;53.362;-1.518;2023-04-30T15:10:35;20.30;;;12.57;;
24153;SDS011;12312;53.362;-1.518;2023-04-30T15:13:19;22.65;;;12.65;;
24153;SDS011;12312;53.362;-1.518;2023-04-30T15:16:03;23.20;;;13.57;;
24153;SDS011;12312;53.362;-1.518;2023-04-30T15:18:48;25.63;;;14.00;;
24153;SDS011;12312;53.362;-1.518;2023-04-30T15:21:32;26.73;;;14.55;;
24153;SDS011;12312;53.362;-1.518;2023-04-30T15:24:16;25.02;;;14.48;;
24153;SDS011;12312;53.362;-1.518;2023-04-30T15:27:01;21.73;;;13.43;;
24153;SDS011;12312;53.362;-1.518;2023-04-30T15:29:46;25.98;;;13.70;;
24153;SDS011;12312;53.362;-1.518;2023-04-30T15:32:30;26.58;;;13.68;;
24153;SDS011;12312;53.362;-1.518;2023-04-30T15:35:15;21.73;;;13.27;;
24153;SDS011;12312;53.362;-1.518;2023-04-30T15:38:00;22.90;;;13.73;;
24153;SDS011;12312;53.362;-1.518;2023-04-30T15:40:44;24.98;;;12.77;;
24153;SDS011;12312;53.362;-1.518;2023-04-30T15:43:28;23.15;;;14.02;;
24153;SDS011;12312;53.362;-1.518;2023-04-30T15:46:13;26.23;;;15.37;;
24153;SDS011;12312;53.362;-1.518;2023-04-30T15:48:57;30.85;;;16.80;;
24153;SDS011;12312;53.362;-1.518;2023-04-30T15:51:41;27.67;;;15.57;;
24153;SDS011;12312;53.362;-1.518;2023-04-30T15:54:25;27.08;;;15.35;;
24153;SDS011;12312;53.362;-1.518;2023-04-30T15:57:09;24.65;;;14.15;;
24153;SDS011;12312;53.362;-1.518;2023-04-30T15:59:54;26.60;;;14.60;;
24153;SDS011;12312;53.362;-1.518;2023-04-30T16:02:39;24.70;;;14.60;;
24153;SDS011;12312;53.362;-1.518;2023-04-30T16:05:23;25.10;;;15.98;;
24153;SDS011;12312;53.362;-1.518;2023-04-30T16:08:07;24.95;;;14.93;;
24153;SDS011;12312;53.362;-1.518;2023-04-30T16:10:54;26.92;;;16.45;;
24153;SDS011;12312;53.362;-1.518;2023-04-30T16:13:39;26.23;;;15.32;;
24153;SDS011;12312;53.362;-1.518;2023-04-30T16:16:23;24.98;;;14.98;;
24153;SDS011;12312;53.362;-1.518;2023-04-30T16:19:07;27.75;;;15.30;;
24153;SDS011;12312;53.362;-1.518;2023-04-30T16:21:52;26.75;;;15.30;;